GFA505 OMDB-OBBI
Flight info
| Callsign | GFA505 |
|---|---|
| Flight time | 0h 50m |
| Altitude | 24000 |
| Route | OMDB/30R N0403F240 NABI3F NABIX P699 ORMID M556 ORDIG ORDIG1 OBBI/30R |
| Aircraft | A20N/M-VGDW/C |
Departure
| Time | 2026-05-04 16:41 |
|---|---|
| Airport | Dubai International Airport (OMDB) |
Arrival
| Time | 2026-05-04 17:31 |
|---|---|
| Airport | Bahrain International Airport (OBBI) |
| Time | Latitude | Longitude | Altitude | Speed | Heading |
|---|---|---|---|---|---|
| 2026-05-04 16:24 | 25.25972 | 55.34479 | 24 ft | 4 kts | 200° |
| 2026-05-04 16:25 | 25.26016 | 55.34476 | 24 ft | 1 kts | 122° |
| 2026-05-04 16:26 | 25.26016 | 55.34475 | 24 ft | 0 kts | 122° |
| 2026-05-04 16:29 | 25.25978 | 55.34542 | 26 ft | 7 kts | 122° |
| 2026-05-04 16:30 | 25.25835 | 55.34797 | 25 ft | 16 kts | 122° |
| 2026-05-04 16:31 | 25.25769 | 55.34999 | 24 ft | 12 kts | 44° |
| 2026-05-04 16:31 | 25.25958 | 55.35126 | 25 ft | 10 kts | 30° |
| 2026-05-04 16:32 | 25.26232 | 55.35312 | 31 ft | 15 kts | 31° |
| 2026-05-04 16:33 | 25.26400 | 55.35426 | 28 ft | 14 kts | 31° |
| 2026-05-04 16:33 | 25.26387 | 55.35575 | 27 ft | 11 kts | 122° |
| 2026-05-04 16:34 | 25.26267 | 55.35787 | 27 ft | 21 kts | 121° |
| 2026-05-04 16:34 | 25.26191 | 55.35920 | 26 ft | 21 kts | 123° |
| 2026-05-04 16:35 | 25.25981 | 55.36294 | 26 ft | 18 kts | 122° |
| 2026-05-04 16:35 | 25.25794 | 55.36629 | 26 ft | 17 kts | 122° |
| 2026-05-04 16:36 | 25.25732 | 55.36737 | 26 ft | 17 kts | 121° |
| 2026-05-04 16:36 | 25.25593 | 55.36989 | 28 ft | 20 kts | 123° |
| 2026-05-04 16:37 | 25.25445 | 55.37246 | 26 ft | 20 kts | 123° |
| 2026-05-04 16:37 | 25.25373 | 55.37374 | 27 ft | 19 kts | 123° |
| 2026-05-04 16:37 | 25.25233 | 55.37627 | 27 ft | 19 kts | 122° |
| 2026-05-04 16:38 | 25.25093 | 55.37875 | 26 ft | 19 kts | 121° |
| 2026-05-04 16:39 | 25.24906 | 55.37994 | 32 ft | 4 kts | 213° |
| 2026-05-04 16:39 | 25.24860 | 55.37927 | 33 ft | 6 kts | 302° |
| 2026-05-04 16:40 | 25.24952 | 55.37768 | 31 ft | 47 kts | 302° |
| 2026-05-04 16:40 | 25.25746 | 55.36333 | 35 ft | 162 kts | 301° |
| 2026-05-04 16:41 | 25.27031 | 55.34137 | 1021 ft | 168 kts | 298° |
| 2026-05-04 16:41 | 25.28278 | 55.30321 | 2618 ft | 195 kts | 279° |
| 2026-05-04 16:42 | 25.27659 | 55.25595 | 4418 ft | 228 kts | 251° |
| 2026-05-04 16:43 | 25.26454 | 55.22325 | 5929 ft | 233 kts | 246° |
| 2026-05-04 16:43 | 25.25078 | 55.18971 | 7208 ft | 249 kts | 245° |
| 2026-05-04 16:43 | 25.24363 | 55.17223 | 7849 ft | 254 kts | 250° |
| 2026-05-04 16:44 | 25.23000 | 55.08785 | 9670 ft | 298 kts | 263° |
| 2026-05-04 16:45 | 25.22379 | 55.04151 | 10562 ft | 319 kts | 263° |
| 2026-05-04 16:46 | 25.21316 | 54.96389 | 11490 ft | 356 kts | 263° |
| 2026-05-04 16:46 | 25.20809 | 54.90908 | 12622 ft | 360 kts | 267° |
| 2026-05-04 16:47 | 25.20419 | 54.85385 | 13835 ft | 364 kts | 267° |
| 2026-05-04 16:47 | 25.20019 | 54.79796 | 15037 ft | 368 kts | 267° |
| 2026-05-04 16:48 | 25.20069 | 54.71260 | 16820 ft | 374 kts | 275° |
| 2026-05-04 16:48 | 25.20242 | 54.68376 | 17409 ft | 376 kts | 275° |
| 2026-05-04 16:49 | 25.20591 | 54.62560 | 18483 ft | 381 kts | 275° |
| 2026-05-04 16:49 | 25.20932 | 54.56700 | 19486 ft | 386 kts | 275° |
| 2026-05-04 16:50 | 25.21635 | 54.50816 | 20430 ft | 390 kts | 283° |
| 2026-05-04 16:50 | 25.23028 | 54.44959 | 21375 ft | 395 kts | 286° |
| 2026-05-04 16:51 | 25.24581 | 54.39106 | 22312 ft | 401 kts | 286° |
| 2026-05-04 16:51 | 25.25365 | 54.36123 | 22780 ft | 403 kts | 285° |
| 2026-05-04 16:51 | 25.26898 | 54.30138 | 23639 ft | 408 kts | 285° |
| 2026-05-04 16:52 | 25.28399 | 54.24115 | 23767 ft | 409 kts | 284° |
| 2026-05-04 16:52 | 25.29151 | 54.21066 | 23767 ft | 409 kts | 284° |
| 2026-05-04 16:53 | 25.30639 | 54.15025 | 23760 ft | 409 kts | 284° |
| 2026-05-04 16:53 | 25.32677 | 54.05877 | 23758 ft | 409 kts | 282° |
| 2026-05-04 16:54 | 25.33315 | 54.02810 | 23764 ft | 409 kts | 282° |
| 2026-05-04 16:55 | 25.35865 | 53.90577 | 23767 ft | 410 kts | 282° |
| 2026-05-04 16:55 | 25.37153 | 53.84446 | 23767 ft | 410 kts | 282° |
| 2026-05-04 16:56 | 25.38446 | 53.78307 | 23767 ft | 410 kts | 282° |
| 2026-05-04 16:56 | 25.40382 | 53.69098 | 23767 ft | 410 kts | 282° |
| 2026-05-04 16:57 | 25.41029 | 53.66010 | 23767 ft | 410 kts | 282° |
| 2026-05-04 16:57 | 25.42316 | 53.59847 | 23767 ft | 410 kts | 282° |
| 2026-05-04 16:58 | 25.44237 | 53.50627 | 23763 ft | 410 kts | 282° |
| 2026-05-04 16:58 | 25.44872 | 53.47579 | 23765 ft | 410 kts | 282° |
| 2026-05-04 16:59 | 25.46142 | 53.41461 | 23768 ft | 410 kts | 282° |
| 2026-05-04 17:00 | 25.48686 | 53.29145 | 23767 ft | 410 kts | 282° |
| 2026-05-04 17:00 | 25.50593 | 53.19894 | 23766 ft | 411 kts | 282° |
| 2026-05-04 17:01 | 25.51854 | 53.13748 | 23776 ft | 411 kts | 282° |
| 2026-05-04 17:01 | 25.53118 | 53.07571 | 23772 ft | 412 kts | 281° |
| 2026-05-04 17:02 | 25.54383 | 53.01366 | 23767 ft | 412 kts | 281° |
| 2026-05-04 17:02 | 25.55636 | 52.95211 | 23768 ft | 411 kts | 281° |
| 2026-05-04 17:03 | 25.56358 | 52.92127 | 23767 ft | 413 kts | 287° |
| 2026-05-04 17:03 | 25.57468 | 52.89186 | 23768 ft | 414 kts | 293° |
| 2026-05-04 17:03 | 25.60054 | 52.83505 | 23766 ft | 415 kts | 296° |
| 2026-05-04 17:04 | 25.62830 | 52.77869 | 23767 ft | 415 kts | 297° |
| 2026-05-04 17:04 | 25.65604 | 52.72266 | 23762 ft | 415 kts | 296° |
| 2026-05-04 17:05 | 25.68354 | 52.66651 | 23757 ft | 414 kts | 296° |
| 2026-05-04 17:05 | 25.71082 | 52.61040 | 23758 ft | 414 kts | 296° |
| 2026-05-04 17:06 | 25.73818 | 52.55399 | 23758 ft | 415 kts | 296° |
| 2026-05-04 17:06 | 25.75171 | 52.52606 | 23758 ft | 415 kts | 296° |
| 2026-05-04 17:07 | 25.77866 | 52.46940 | 23758 ft | 414 kts | 295° |
| 2026-05-04 17:07 | 25.78299 | 52.46010 | 23757 ft | 414 kts | 295° |
| 2026-05-04 17:07 | 25.80073 | 52.42188 | 23759 ft | 414 kts | 295° |
| 2026-05-04 17:07 | 25.81377 | 52.39367 | 23758 ft | 414 kts | 295° |
| 2026-05-04 17:08 | 25.82697 | 52.36512 | 23757 ft | 414 kts | 295° |
| 2026-05-04 17:08 | 25.85322 | 52.30841 | 23758 ft | 414 kts | 295° |
| 2026-05-04 17:08 | 25.86729 | 52.28061 | 23756 ft | 415 kts | 301° |
| 2026-05-04 17:09 | 25.88491 | 52.25493 | 23759 ft | 417 kts | 307° |
| 2026-05-04 17:09 | 25.90354 | 52.23053 | 23759 ft | 418 kts | 309° |
| 2026-05-04 17:09 | 25.92310 | 52.20627 | 23638 ft | 422 kts | 310° |
| 2026-05-04 17:10 | 25.96315 | 52.15831 | 23136 ft | 421 kts | 310° |
| 2026-05-04 17:10 | 26.02222 | 52.08770 | 22398 ft | 416 kts | 310° |
| 2026-05-04 17:11 | 26.04194 | 52.06390 | 22146 ft | 414 kts | 310° |
| 2026-05-04 17:11 | 26.06146 | 52.04029 | 21891 ft | 413 kts | 310° |
| 2026-05-04 17:11 | 26.10000 | 51.99361 | 21393 ft | 409 kts | 310° |
| 2026-05-04 17:12 | 26.11909 | 51.97047 | 21144 ft | 408 kts | 310° |
| 2026-05-04 17:12 | 26.15733 | 51.92405 | 20638 ft | 404 kts | 310° |
| 2026-05-04 17:13 | 26.21384 | 51.85541 | 19899 ft | 399 kts | 310° |
| 2026-05-04 17:14 | 26.26340 | 51.78211 | 19149 ft | 391 kts | 298° |
| 2026-05-04 17:14 | 26.27620 | 51.75576 | 18900 ft | 389 kts | 296° |
| 2026-05-04 17:14 | 26.30037 | 51.70186 | 18401 ft | 386 kts | 294° |
| 2026-05-04 17:15 | 26.31196 | 51.67528 | 18153 ft | 384 kts | 294° |
| 2026-05-04 17:15 | 26.33539 | 51.62176 | 17648 ft | 380 kts | 295° |
| 2026-05-04 17:16 | 26.35870 | 51.56914 | 17157 ft | 378 kts | 295° |
| 2026-05-04 17:16 | 26.38977 | 51.48926 | 16317 ft | 373 kts | 290° |
| 2026-05-04 17:17 | 26.39875 | 51.46209 | 15815 ft | 371 kts | 289° |
| 2026-05-04 17:17 | 26.42432 | 51.38154 | 14329 ft | 364 kts | 289° |
| 2026-05-04 17:18 | 26.43274 | 51.35496 | 13812 ft | 361 kts | 290° |
| 2026-05-04 17:18 | 26.44897 | 51.30326 | 12841 ft | 348 kts | 287° |
| 2026-05-04 17:19 | 26.45163 | 51.25062 | 12022 ft | 335 kts | 256° |
| 2026-05-04 17:19 | 26.42783 | 51.20829 | 11614 ft | 315 kts | 233° |
| 2026-05-04 17:20 | 26.40081 | 51.17239 | 11298 ft | 290 kts | 233° |
| 2026-05-04 17:20 | 26.37521 | 51.13895 | 10561 ft | 285 kts | 233° |
| 2026-05-04 17:20 | 26.36205 | 51.12175 | 9858 ft | 295 kts | 233° |
| 2026-05-04 17:21 | 26.33491 | 51.08643 | 8764 ft | 300 kts | 233° |
| 2026-05-04 17:21 | 26.30790 | 51.05158 | 7944 ft | 294 kts | 233° |
| 2026-05-04 17:22 | 26.29476 | 51.03467 | 7762 ft | 282 kts | 233° |
| 2026-05-04 17:22 | 26.28211 | 51.01848 | 7627 ft | 271 kts | 233° |
| 2026-05-04 17:23 | 26.24406 | 50.97656 | 7020 ft | 254 kts | 215° |
| 2026-05-04 17:23 | 26.22896 | 50.96674 | 6726 ft | 253 kts | 213° |
| 2026-05-04 17:23 | 26.19940 | 50.94848 | 6471 ft | 233 kts | 213° |
| 2026-05-04 17:24 | 26.18505 | 50.93970 | 6095 ft | 237 kts | 213° |
| 2026-05-04 17:24 | 26.14106 | 50.91260 | 4689 ft | 242 kts | 213° |
| 2026-05-04 17:25 | 26.12655 | 50.90375 | 4352 ft | 238 kts | 213° |
| 2026-05-04 17:25 | 26.10929 | 50.87655 | 3455 ft | 213 kts | 276° |
| 2026-05-04 17:26 | 26.12107 | 50.84892 | 2633 ft | 198 kts | 311° |
| 2026-05-04 17:26 | 26.14945 | 50.81440 | 2006 ft | 197 kts | 320° |
| 2026-05-04 17:27 | 26.17053 | 50.79601 | 2017 ft | 191 kts | 323° |
| 2026-05-04 17:27 | 26.18950 | 50.77486 | 2033 ft | 202 kts | 304° |
| 2026-05-04 17:28 | 26.20391 | 50.74967 | 2040 ft | 176 kts | 303° |
| 2026-05-04 17:29 | 26.22281 | 50.71700 | 1470 ft | 155 kts | 303° |
| 2026-05-04 17:29 | 26.23809 | 50.69043 | 935 ft | 128 kts | 302° |
| 2026-05-04 17:30 | 26.25256 | 50.66530 | 421 ft | 128 kts | 303° |
| 2026-05-04 17:31 | 26.26219 | 50.64857 | 101 ft | 129 kts | 303° |
| 2026-05-04 17:31 | 26.27240 | 50.63074 | 19 ft | 26 kts | 286° |
| 2026-05-04 17:32 | 26.27250 | 50.62846 | 23 ft | 6 kts | 232° |
| 2026-05-04 17:33 | 26.27214 | 50.62835 | 24 ft | 3 kts | 174° |
| 2026-05-04 17:33 | 26.27188 | 50.62849 | 23 ft | 4 kts | 132° |
| 2026-05-04 17:34 | 26.27156 | 50.62927 | 24 ft | 6 kts | 205° |
| 2026-05-04 17:34 | 26.27112 | 50.62918 | 25 ft | 13 kts | 185° |